createdAt,value
2022-12-19T00:04:49.196Z,26.20
2022-12-19T00:09:52.504Z,26.60
2022-12-19T00:14:55.919Z,28.00
2022-12-19T00:20:01.790Z,25.40
2022-12-19T00:25:05.817Z,21.10
2022-12-19T00:30:11.661Z,28.30
2022-12-19T00:35:15.510Z,26.70
2022-12-19T00:40:18.820Z,26.80
2022-12-19T00:45:22.646Z,30.50
2022-12-19T00:50:25.953Z,28.20
2022-12-19T00:55:29.672Z,26.90
2022-12-19T01:00:33.030Z,21.20
2022-12-19T01:05:36.505Z,22.30
2022-12-19T01:10:46.915Z,26.30
2022-12-19T01:15:50.598Z,25.70
2022-12-19T01:20:53.910Z,28.00
2022-12-19T01:25:57.937Z,27.00
2022-12-19T01:31:01.247Z,27.70
2022-12-19T01:36:07.953Z,27.50
2022-12-19T01:41:11.994Z,25.70
2022-12-19T01:46:15.833Z,24.70
2022-12-19T01:51:24.644Z,24.10
2022-12-19T01:56:34.826Z,23.60
2022-12-19T02:01:50.883Z,23.80
2022-12-19T02:06:57.692Z,22.90
2022-12-19T02:12:01.802Z,22.20
2022-12-19T02:22:34.131Z,23.00
2022-12-19T02:27:56.292Z,23.80
2022-12-19T02:33:13.734Z,24.60
2022-12-19T02:38:39.263Z,23.40
2022-12-19T02:43:49.010Z,22.70
2022-12-19T02:48:59.113Z,20.00
2022-12-19T02:54:02.722Z,23.30
2022-12-19T02:59:19.038Z,21.40
2022-12-19T03:04:34.843Z,22.00
2022-12-19T03:09:51.161Z,22.10
2022-12-19T03:14:57.199Z,22.60
2022-12-19T03:20:01.087Z,19.20
2022-12-19T03:25:04.909Z,22.60
2022-12-19T03:30:12.533Z,20.70
2022-12-19T03:35:23.482Z,21.80
2022-12-19T03:40:30.824Z,23.00
2022-12-19T03:45:40.246Z,22.80
2022-12-19T03:50:55.150Z,21.60
2022-12-19T03:56:06.961Z,23.90
2022-12-19T04:01:10.491Z,21.80
2022-12-19T04:06:15.112Z,20.40
2022-12-19T04:11:20.978Z,22.00
2022-12-19T04:17:00.230Z,15.80
2022-12-19T04:22:10.505Z,20.20
2022-12-19T04:27:15.074Z,19.50
2022-12-19T04:32:19.597Z,18.50
2022-12-19T04:37:24.122Z,14.80
2022-12-19T04:42:27.434Z,15.10
2022-12-19T04:47:30.948Z,15.90
2022-12-19T04:52:34.468Z,16.80
2022-12-19T04:57:38.080Z,15.50
2022-12-19T05:02:41.731Z,17.70
2022-12-19T05:07:47.274Z,17.50
2022-12-19T05:12:50.785Z,13.50
2022-12-19T05:17:54.290Z,14.10
2022-12-19T05:22:59.218Z,14.20
2022-12-19T05:28:04.805Z,14.00
2022-12-19T05:33:08.631Z,17.00
2022-12-19T05:38:12.141Z,15.00
2022-12-19T05:43:15.556Z,11.60
2022-12-19T05:48:18.864Z,8.90
2022-12-19T05:53:25.983Z,15.40
2022-12-19T05:58:31.632Z,15.10
2022-12-19T06:03:35.122Z,13.30
2022-12-19T06:08:39.375Z,13.90
2022-12-19T06:18:47.671Z,12.80
2022-12-19T06:23:51.573Z,12.50
2022-12-19T06:28:56.081Z,12.10
2022-12-19T06:33:59.618Z,13.40
2022-12-19T06:39:04.460Z,11.90
2022-12-19T06:44:11.396Z,10.20
2022-12-19T06:49:15.997Z,13.10
2022-12-19T06:54:19.412Z,12.10
2022-12-19T06:59:23.233Z,10.50
2022-12-19T07:04:33.363Z,11.60
2022-12-19T07:09:37.122Z,11.00
2022-12-19T07:14:40.435Z,10.60
2022-12-19T07:19:44.151Z,8.50
2022-12-19T07:24:47.769Z,10.80
2022-12-19T07:29:50.979Z,11.60
2022-12-19T07:34:54.597Z,15.20
2022-12-19T07:39:58.320Z,12.90
2022-12-19T07:45:01.834Z,11.90
2022-12-19T07:50:06.269Z,11.90
2022-12-19T07:55:10.297Z,12.70
2022-12-19T08:05:17.534Z,14.90
2022-12-19T08:10:23.089Z,12.90
2022-12-19T08:15:26.619Z,13.90
2022-12-19T08:20:30.127Z,16.40
2022-12-19T08:25:33.821Z,14.90
2022-12-19T08:30:39.773Z,13.10
2022-12-19T08:35:43.127Z,13.50
2022-12-19T08:40:53.948Z,14.70
2022-12-19T08:45:57.515Z,14.30
2022-12-19T08:51:04.062Z,15.20
2022-12-19T08:56:12.959Z,14.50
2022-12-19T09:01:21.341Z,13.90
2022-12-19T09:06:25.672Z,14.00
2022-12-19T09:16:32.891Z,15.30
2022-12-19T09:21:36.476Z,11.60
2022-12-19T09:26:40.403Z,14.70
2022-12-19T09:31:43.919Z,15.60
2022-12-19T09:36:47.230Z,16.30
2022-12-19T09:42:08.459Z,14.20
2022-12-19T09:47:25.308Z,14.80
2022-12-19T09:52:41.397Z,17.10
2022-12-19T09:58:10.408Z,15.10
2022-12-19T10:03:40.263Z,13.30
2022-12-19T10:09:11.807Z,14.60
2022-12-19T10:14:08.882Z,15.60
2022-12-19T10:19:34.944Z,16.70
2022-12-19T10:24:57.595Z,14.50
2022-12-19T10:30:19.369Z,14.30
2022-12-19T10:35:37.903Z,16.60
2022-12-19T10:41:15.730Z,15.90
2022-12-19T10:46:41.098Z,16.00
2022-12-19T10:52:08.196Z,13.50
2022-12-19T10:57:30.325Z,13.50
2022-12-19T11:02:40.068Z,13.50
2022-12-19T11:08:00.915Z,13.60
2022-12-19T11:18:35.180Z,14.60
2022-12-19T11:27:40.680Z,14.50
2022-12-19T11:30:07.045Z,15.10
2022-12-19T11:35:21.652Z,15.80
2022-12-19T11:40:43.153Z,14.60
2022-12-19T11:46:08.588Z,10.20
2022-12-19T11:51:36.877Z,14.20
2022-12-19T11:56:40.493Z,12.30
2022-12-19T12:01:47.698Z,11.60
2022-12-19T12:06:53.605Z,14.20
2022-12-19T12:19:44.516Z,14.60
2022-12-19T12:31:01.842Z,13.10
2022-12-19T12:31:07.463Z,15.20
2022-12-19T12:32:03.193Z,15.90
2022-12-19T12:35:51.088Z,16.00
2022-12-19T12:40:43.767Z,14.60
2022-12-19T12:45:47.598Z,11.80
2022-12-19T12:50:55.322Z,13.70
2022-12-19T12:56:02.961Z,16.90
2022-12-19T13:01:12.137Z,15.20
2022-12-19T13:06:37.999Z,14.40
2022-12-19T13:12:07.421Z,14.00
2022-12-19T13:17:13.632Z,15.30
2022-12-19T13:22:38.936Z,16.60
2022-12-19T13:27:48.599Z,13.50
2022-12-19T13:32:52.105Z,14.20
2022-12-19T13:39:47.803Z,15.10
2022-12-19T13:43:46.440Z,18.40
2022-12-19T13:48:57.129Z,17.50
2022-12-19T13:54:00.543Z,17.80
2022-12-19T13:59:05.287Z,19.50
2022-12-19T14:04:25.182Z,16.90
2022-12-19T14:11:26.328Z,18.00
2022-12-19T14:15:14.815Z,25.80
2022-12-19T14:21:36.454Z,19.50
2022-12-19T14:28:18.228Z,20.40
2022-12-19T14:31:21.337Z,14.80
2022-12-19T14:36:29.976Z,20.20
2022-12-19T14:42:02.113Z,14.70
2022-12-19T14:54:07.205Z,13.20
2022-12-19T14:54:25.925Z,12.40
2022-12-19T14:58:53.487Z,13.00
2022-12-19T15:04:53.133Z,12.30
2022-12-19T15:10:59.048Z,10.50
2022-12-19T15:14:59.179Z,12.80
2022-12-19T15:20:03.275Z,15.20
2022-12-19T15:25:17.579Z,15.20
2022-12-19T15:30:35.959Z,15.80
2022-12-19T15:35:42.388Z,15.40
2022-12-19T15:40:46.002Z,14.00
2022-12-19T15:45:56.892Z,14.40
2022-12-19T15:51:00.097Z,14.80
2022-12-19T15:56:03.724Z,16.30
2022-12-19T16:01:07.133Z,15.10
2022-12-19T16:06:20.521Z,17.20
2022-12-19T16:11:25.030Z,13.50
2022-12-19T16:16:29.898Z,16.90
2022-12-19T16:21:34.454Z,13.30
2022-12-19T16:26:40.630Z,15.70
2022-12-19T16:31:43.920Z,15.20
2022-12-19T16:36:48.946Z,16.10
2022-12-19T16:41:52.266Z,15.60
2022-12-19T16:46:59.046Z,15.60
2022-12-19T16:52:02.467Z,17.90
2022-12-19T16:57:08.484Z,15.60
2022-12-19T17:02:26.884Z,14.60
2022-12-19T17:07:32.277Z,14.40
2022-12-19T17:12:38.741Z,12.90
2022-12-19T17:17:42.508Z,15.10
2022-12-19T17:22:46.798Z,15.20
2022-12-19T17:32:55.777Z,15.90
2022-12-19T17:37:59.083Z,14.20
2022-12-19T17:43:04.959Z,15.10
2022-12-19T17:48:23.421Z,10.50
2022-12-19T17:53:27.167Z,15.60
2022-12-19T17:58:30.453Z,17.50
2022-12-19T18:03:34.140Z,14.90
2022-12-19T18:08:37.685Z,15.10
2022-12-19T18:13:41.202Z,16.60
2022-12-19T18:18:45.851Z,12.00
2022-12-19T18:39:24.233Z,22.50
2022-12-19T18:44:27.484Z,21.30
2022-12-19T18:49:36.120Z,18.60
2022-12-19T18:54:39.744Z,27.50
2022-12-19T18:59:43.150Z,28.40
2022-12-19T19:04:46.567Z,18.30
2022-12-19T19:09:49.980Z,14.90
2022-12-19T19:14:55.127Z,15.70
2022-12-19T19:20:00.291Z,16.90
2022-12-19T19:25:04.320Z,20.00
2022-12-19T19:30:12.124Z,16.80
2022-12-19T19:35:20.115Z,17.50
2022-12-19T19:40:24.619Z,16.50
2022-12-19T19:45:28.327Z,13.90
2022-12-19T19:50:32.438Z,17.80
2022-12-19T19:55:35.750Z,17.20
2022-12-19T20:00:40.939Z,16.80
2022-12-19T20:05:44.618Z,18.00
2022-12-19T20:10:57.874Z,18.50
2022-12-19T20:16:36.770Z,17.80
2022-12-19T20:21:44.513Z,18.80
2022-12-19T20:26:49.381Z,18.80
2022-12-19T20:31:52.801Z,18.40
2022-12-19T20:36:56.301Z,14.80
2022-12-19T20:41:59.920Z,18.60
2022-12-19T20:52:07.776Z,19.50
2022-12-19T20:57:13.960Z,19.50
2022-12-19T21:02:20.295Z,21.60
2022-12-19T21:07:28.758Z,19.60
2022-12-19T21:12:32.275Z,21.30
2022-12-19T21:17:35.689Z,19.10
2022-12-19T21:22:39.102Z,20.10
2022-12-19T21:27:48.699Z,19.30
2022-12-19T21:32:52.172Z,21.50
2022-12-19T21:37:55.993Z,20.20
2022-12-19T21:42:59.327Z,19.10
2022-12-19T21:48:02.729Z,22.10
2022-12-19T21:53:06.242Z,19.80
2022-12-19T21:58:09.654Z,17.00
2022-12-19T22:03:18.132Z,20.70
2022-12-19T22:08:28.775Z,21.00
2022-12-19T22:13:32.074Z,19.30
2022-12-19T22:25:47.003Z,22.90
2022-12-19T22:30:50.417Z,20.50
2022-12-19T22:35:54.442Z,20.90
2022-12-19T22:41:02.666Z,19.90
2022-12-19T22:46:23.258Z,20.00
2022-12-19T22:51:28.139Z,19.00
2022-12-19T22:56:33.286Z,21.20
2022-12-19T23:01:41.992Z,19.70
2022-12-19T23:06:52.603Z,20.00
2022-12-19T23:12:10.521Z,18.80
2022-12-19T23:17:15.717Z,17.50
2022-12-19T23:22:19.128Z,17.70
2022-12-19T23:27:22.742Z,16.30
2022-12-19T23:32:26.188Z,12.30
2022-12-19T23:37:29.680Z,13.30
2022-12-19T23:42:33.131Z,12.20
2022-12-19T23:47:36.706Z,10.30
2022-12-19T23:52:40.116Z,9.50
2022-12-19T23:57:43.647Z,8.80
